CGQ weather

Longjia Airport
Changchun, Jilin Province, China

Public forecast

Using degrees Celsius for public forecast. Weather courtesy of forecast.io.

METAR (pilot weather report)

Retrieved 2019/07/21 18:00 UTC (46 minutes ago):

ZYCC 211800Z VRB01MPS 4000 BR BKN026 22/20 Q1002 NOSIG

TAF (pilot weather forecast)

Retrieved 2019/07/21 18:03 UTC (43 minutes ago):

TAF ZYCC 211504Z 2118/2218 26003MPS 6000 FEW023 TX31/2206Z TN21/2121Z